sensor_id;sensor_type;location;lat;lon;timestamp;temperature;humidity
67799;SHT30;54596;43.216;27.904;2024-01-30T00:01:24;2.63;84.39
67799;SHT30;54596;43.216;27.904;2024-01-30T00:03:50;2.62;84.42
67799;SHT30;54596;43.216;27.904;2024-01-30T00:06:19;2.64;84.51
67799;SHT30;54596;43.216;27.904;2024-01-30T00:08:46;2.62;84.57
67799;SHT30;54596;43.216;27.904;2024-01-30T00:11:14;2.63;84.60
67799;SHT30;54596;43.216;27.904;2024-01-30T00:13:40;2.63;84.64
67799;SHT30;54596;43.216;27.904;2024-01-30T00:16:06;2.59;84.82
67799;SHT30;54596;43.216;27.904;2024-01-30T00:18:32;2.62;84.89
67799;SHT30;54596;43.216;27.904;2024-01-30T00:20:57;2.62;84.97
67799;SHT30;54596;43.216;27.904;2024-01-30T00:23:23;2.57;85.00
67799;SHT30;54596;43.216;27.904;2024-01-30T00:25:48;2.60;85.14
67799;SHT30;54596;43.216;27.904;2024-01-30T00:28:14;2.60;85.33
67799;SHT30;54596;43.216;27.904;2024-01-30T00:30:39;2.60;85.25
67799;SHT30;54596;43.216;27.904;2024-01-30T00:33:05;2.62;85.34
67799;SHT30;54596;43.216;27.904;2024-01-30T00:35:31;2.60;85.41
67799;SHT30;54596;43.216;27.904;2024-01-30T00:37:56;2.59;85.51
67799;SHT30;54596;43.216;27.904;2024-01-30T00:40:22;2.53;85.65
67799;SHT30;54596;43.216;27.904;2024-01-30T00:42:48;2.56;85.74
67799;SHT30;54596;43.216;27.904;2024-01-30T00:45:14;2.59;85.84
67799;SHT30;54596;43.216;27.904;2024-01-30T00:47:40;2.56;85.93
67799;SHT30;54596;43.216;27.904;2024-01-30T00:50:06;2.57;85.96
67799;SHT30;54596;43.216;27.904;2024-01-30T00:52:32;2.59;86.01
67799;SHT30;54596;43.216;27.904;2024-01-30T00:54:59;2.57;86.06
67799;SHT30;54596;43.216;27.904;2024-01-30T00:57:25;2.57;86.14
67799;SHT30;54596;43.216;27.904;2024-01-30T00:59:52;2.57;86.30
67799;SHT30;54596;43.216;27.904;2024-01-30T01:02:17;2.55;86.39
67799;SHT30;54596;43.216;27.904;2024-01-30T01:04:43;2.55;86.36
67799;SHT30;54596;43.216;27.904;2024-01-30T01:07:10;2.53;86.40
67799;SHT30;54596;43.216;27.904;2024-01-30T01:09:36;2.56;86.46
67799;SHT30;54596;43.216;27.904;2024-01-30T01:12:02;2.59;86.43
67799;SHT30;54596;43.216;27.904;2024-01-30T01:14:28;2.56;86.40
67799;SHT30;54596;43.216;27.904;2024-01-30T01:16:54;2.57;86.35
67799;SHT30;54596;43.216;27.904;2024-01-30T01:19:19;2.60;86.35
67799;SHT30;54596;43.216;27.904;2024-01-30T01:21:45;2.57;86.36
67799;SHT30;54596;43.216;27.904;2024-01-30T01:24:10;2.59;86.38
67799;SHT30;54596;43.216;27.904;2024-01-30T01:26:36;2.59;86.42
67799;SHT30;54596;43.216;27.904;2024-01-30T01:29:01;2.62;86.53
67799;SHT30;54596;43.216;27.904;2024-01-30T01:31:29;2.60;86.54
67799;SHT30;54596;43.216;27.904;2024-01-30T01:33:55;2.56;86.54
67799;SHT30;54596;43.216;27.904;2024-01-30T01:36:20;2.60;86.43
67799;SHT30;54596;43.216;27.904;2024-01-30T01:38:46;2.59;86.40
67799;SHT30;54596;43.216;27.904;2024-01-30T01:41:12;2.59;86.38
67799;SHT30;54596;43.216;27.904;2024-01-30T01:43:37;2.59;86.33
67799;SHT30;54596;43.216;27.904;2024-01-30T01:46:06;2.60;86.27
67799;SHT30;54596;43.216;27.904;2024-01-30T01:48:32;2.63;86.22
67799;SHT30;54596;43.216;27.904;2024-01-30T01:50:59;2.56;86.19
67799;SHT30;54596;43.216;27.904;2024-01-30T01:53:25;2.55;86.28
67799;SHT30;54596;43.216;27.904;2024-01-30T01:55:51;2.55;86.31
67799;SHT30;54596;43.216;27.904;2024-01-30T01:58:19;2.52;86.28
67799;SHT30;54596;43.216;27.904;2024-01-30T02:00:45;2.50;86.31
67799;SHT30;54596;43.216;27.904;2024-01-30T02:03:13;2.50;86.30
67799;SHT30;54596;43.216;27.904;2024-01-30T02:05:40;2.50;86.24
67799;SHT30;54596;43.216;27.904;2024-01-30T02:08:06;2.52;86.23
67799;SHT30;54596;43.216;27.904;2024-01-30T02:10:32;2.50;86.20
67799;SHT30;54596;43.216;27.904;2024-01-30T02:12:57;2.52;86.20
67799;SHT30;54596;43.216;27.904;2024-01-30T02:15:23;2.52;86.24
67799;SHT30;54596;43.216;27.904;2024-01-30T02:17:48;2.53;86.24
67799;SHT30;54596;43.216;27.904;2024-01-30T02:20:14;2.52;86.19
67799;SHT30;54596;43.216;27.904;2024-01-30T02:22:40;2.50;86.25
67799;SHT30;54596;43.216;27.904;2024-01-30T02:25:06;2.52;86.21
67799;SHT30;54596;43.216;27.904;2024-01-30T02:27:32;2.49;86.24
67799;SHT30;54596;43.216;27.904;2024-01-30T02:29:58;2.53;86.24
67799;SHT30;54596;43.216;27.904;2024-01-30T02:32:23;2.49;86.22
67799;SHT30;54596;43.216;27.904;2024-01-30T02:34:49;2.52;86.22
67799;SHT30;54596;43.216;27.904;2024-01-30T02:37:14;2.53;86.22
67799;SHT30;54596;43.216;27.904;2024-01-30T02:39:40;2.56;86.21
67799;SHT30;54596;43.216;27.904;2024-01-30T02:42:05;2.55;86.25
67799;SHT30;54596;43.216;27.904;2024-01-30T02:44:35;2.53;86.38
67799;SHT30;54596;43.216;27.904;2024-01-30T02:47:00;2.55;86.40
67799;SHT30;54596;43.216;27.904;2024-01-30T02:49:26;2.55;86.42
67799;SHT30;54596;43.216;27.904;2024-01-30T02:51:53;2.55;86.54
67799;SHT30;54596;43.216;27.904;2024-01-30T02:54:19;2.56;86.58
67799;SHT30;54596;43.216;27.904;2024-01-30T02:56:44;2.55;86.69
67799;SHT30;54596;43.216;27.904;2024-01-30T02:59:10;2.50;87.10
67799;SHT30;54596;43.216;27.904;2024-01-30T03:01:45;2.46;87.48
67799;SHT30;54596;43.216;27.904;2024-01-30T03:04:11;2.46;87.44
67799;SHT30;54596;43.216;27.904;2024-01-30T03:06:37;2.42;87.27
67799;SHT30;54596;43.216;27.904;2024-01-30T03:09:02;2.45;87.30
67799;SHT30;54596;43.216;27.904;2024-01-30T03:11:30;2.44;88.05
67799;SHT30;54596;43.216;27.904;2024-01-30T03:13:56;2.41;88.76
67799;SHT30;54596;43.216;27.904;2024-01-30T03:16:21;2.42;88.92
67799;SHT30;54596;43.216;27.904;2024-01-30T03:18:47;2.38;88.83
67799;SHT30;54596;43.216;27.904;2024-01-30T03:21:13;2.36;89.03
67799;SHT30;54596;43.216;27.904;2024-01-30T03:23:39;2.34;88.90
67799;SHT30;54596;43.216;27.904;2024-01-30T03:26:05;2.35;88.67
67799;SHT30;54596;43.216;27.904;2024-01-30T03:28:32;2.31;88.74
67799;SHT30;54596;43.216;27.904;2024-01-30T03:30:57;2.28;88.64
67799;SHT30;54596;43.216;27.904;2024-01-30T03:33:23;2.28;88.71
67799;SHT30;54596;43.216;27.904;2024-01-30T03:35:48;2.29;88.80
67799;SHT30;54596;43.216;27.904;2024-01-30T03:38:14;2.34;88.91
67799;SHT30;54596;43.216;27.904;2024-01-30T03:40:39;2.29;88.80
67799;SHT30;54596;43.216;27.904;2024-01-30T03:43:05;2.28;88.60
67799;SHT30;54596;43.216;27.904;2024-01-30T03:45:31;2.28;88.38
67799;SHT30;54596;43.216;27.904;2024-01-30T03:47:56;2.31;88.36
67799;SHT30;54596;43.216;27.904;2024-01-30T03:50:22;2.32;88.29
67799;SHT30;54596;43.216;27.904;2024-01-30T03:52:48;2.32;88.11
67799;SHT30;54596;43.216;27.904;2024-01-30T03:55:13;2.35;88.01
67799;SHT30;54596;43.216;27.904;2024-01-30T03:57:39;2.38;88.00
67799;SHT30;54596;43.216;27.904;2024-01-30T04:00:05;2.39;87.74
67799;SHT30;54596;43.216;27.904;2024-01-30T04:02:30;2.39;87.43
67799;SHT30;54596;43.216;27.904;2024-01-30T04:04:56;2.41;87.43
67799;SHT30;54596;43.216;27.904;2024-01-30T04:07:22;2.41;87.34
67799;SHT30;54596;43.216;27.904;2024-01-30T04:09:47;2.38;87.23
67799;SHT30;54596;43.216;27.904;2024-01-30T04:12:13;2.41;87.16
67799;SHT30;54596;43.216;27.904;2024-01-30T04:14:39;2.46;87.85
67799;SHT30;54596;43.216;27.904;2024-01-30T04:17:04;2.53;87.55
67799;SHT30;54596;43.216;27.904;2024-01-30T04:19:30;2.59;87.83
67799;SHT30;54596;43.216;27.904;2024-01-30T04:21:56;2.72;88.48
67799;SHT30;54596;43.216;27.904;2024-01-30T04:24:21;2.72;86.94
67799;SHT30;54596;43.216;27.904;2024-01-30T04:26:47;2.70;86.52
67799;SHT30;54596;43.216;27.904;2024-01-30T04:29:12;2.69;86.71
67799;SHT30;54596;43.216;27.904;2024-01-30T04:31:38;2.73;87.01
67799;SHT30;54596;43.216;27.904;2024-01-30T04:34:03;2.70;86.85
67799;SHT30;54596;43.216;27.904;2024-01-30T04:36:29;2.76;86.75
67799;SHT30;54596;43.216;27.904;2024-01-30T04:38:54;2.73;86.59
67799;SHT30;54596;43.216;27.904;2024-01-30T04:41:20;2.77;86.78
67799;SHT30;54596;43.216;27.904;2024-01-30T04:43:45;2.75;86.25
67799;SHT30;54596;43.216;27.904;2024-01-30T04:46:11;2.73;85.97
67799;SHT30;54596;43.216;27.904;2024-01-30T04:48:37;2.67;85.71
67799;SHT30;54596;43.216;27.904;2024-01-30T04:51:02;2.64;86.10
67799;SHT30;54596;43.216;27.904;2024-01-30T04:53:30;2.63;85.98
67799;SHT30;54596;43.216;27.904;2024-01-30T04:55:56;2.60;85.91
67799;SHT30;54596;43.216;27.904;2024-01-30T04:58:22;2.59;85.95
67799;SHT30;54596;43.216;27.904;2024-01-30T05:00:47;2.53;85.99
67799;SHT30;54596;43.216;27.904;2024-01-30T05:03:17;2.56;86.02
67799;SHT30;54596;43.216;27.904;2024-01-30T05:05:43;2.55;86.03
67799;SHT30;54596;43.216;27.904;2024-01-30T05:08:08;2.53;85.95
67799;SHT30;54596;43.216;27.904;2024-01-30T05:10:35;2.55;85.86
67799;SHT30;54596;43.216;27.904;2024-01-30T05:13:00;2.52;85.88
67799;SHT30;54596;43.216;27.904;2024-01-30T05:15:26;2.50;85.90
67799;SHT30;54596;43.216;27.904;2024-01-30T05:17:51;2.48;85.96
67799;SHT30;54596;43.216;27.904;2024-01-30T05:20:17;2.49;85.94
67799;SHT30;54596;43.216;27.904;2024-01-30T05:22:43;2.52;85.89
67799;SHT30;54596;43.216;27.904;2024-01-30T05:25:13;2.49;85.84
67799;SHT30;54596;43.216;27.904;2024-01-30T05:27:39;2.49;85.93
67799;SHT30;54596;43.216;27.904;2024-01-30T05:30:06;2.50;85.93
67799;SHT30;54596;43.216;27.904;2024-01-30T05:32:32;2.50;85.98
67799;SHT30;54596;43.216;27.904;2024-01-30T05:34:57;2.49;85.82
67799;SHT30;54596;43.216;27.904;2024-01-30T05:37:23;2.50;85.71
67799;SHT30;54596;43.216;27.904;2024-01-30T05:39:49;2.53;85.76
67799;SHT30;54596;43.216;27.904;2024-01-30T05:42:14;2.55;85.72
67799;SHT30;54596;43.216;27.904;2024-01-30T05:44:42;2.56;85.80
67799;SHT30;54596;43.216;27.904;2024-01-30T05:47:07;2.53;85.94
67799;SHT30;54596;43.216;27.904;2024-01-30T05:49:33;2.55;85.94
67799;SHT30;54596;43.216;27.904;2024-01-30T05:52:01;2.55;85.89
67799;SHT30;54596;43.216;27.904;2024-01-30T05:54:27;2.55;85.90
67799;SHT30;54596;43.216;27.904;2024-01-30T05:56:52;2.52;85.96
67799;SHT30;54596;43.216;27.904;2024-01-30T05:59:18;2.55;86.23
67799;SHT30;54596;43.216;27.904;2024-01-30T06:01:47;2.59;86.21
67799;SHT30;54596;43.216;27.904;2024-01-30T06:04:13;2.60;85.98
67799;SHT30;54596;43.216;27.904;2024-01-30T06:06:38;2.66;85.86
67799;SHT30;54596;43.216;27.904;2024-01-30T06:09:04;2.69;85.85
67799;SHT30;54596;43.216;27.904;2024-01-30T06:11:29;2.70;86.26
67799;SHT30;54596;43.216;27.904;2024-01-30T06:13:55;2.75;86.31
67799;SHT30;54596;43.216;27.904;2024-01-30T06:16:21;2.79;86.11
67799;SHT30;54596;43.216;27.904;2024-01-30T06:18:47;2.77;85.64
67799;SHT30;54596;43.216;27.904;2024-01-30T06:21:13;2.81;86.07
67799;SHT30;54596;43.216;27.904;2024-01-30T06:23:38;2.86;86.32
67799;SHT30;54596;43.216;27.904;2024-01-30T06:26:06;2.86;85.87
67799;SHT30;54596;43.216;27.904;2024-01-30T06:28:31;2.86;85.71
67799;SHT30;54596;43.216;27.904;2024-01-30T06:30:57;2.80;85.90
67799;SHT30;54596;43.216;27.904;2024-01-30T06:33:22;2.81;86.11
67799;SHT30;54596;43.216;27.904;2024-01-30T06:35:48;2.83;86.16
67799;SHT30;54596;43.216;27.904;2024-01-30T06:38:13;2.81;86.23
67799;SHT30;54596;43.216;27.904;2024-01-30T06:40:41;2.80;86.23
67799;SHT30;54596;43.216;27.904;2024-01-30T06:43:07;2.77;86.38
67799;SHT30;54596;43.216;27.904;2024-01-30T06:45:33;2.79;86.33
67799;SHT30;54596;43.216;27.904;2024-01-30T06:48:00;2.77;86.26
67799;SHT30;54596;43.216;27.904;2024-01-30T06:50:26;2.79;86.33
67799;SHT30;54596;43.216;27.904;2024-01-30T06:52:51;2.81;86.36
67799;SHT30;54596;43.216;27.904;2024-01-30T06:55:18;2.84;86.85
67799;SHT30;54596;43.216;27.904;2024-01-30T06:57:43;2.86;87.38
67799;SHT30;54596;43.216;27.904;2024-01-30T07:00:09;2.91;87.55
67799;SHT30;54596;43.216;27.904;2024-01-30T07:02:35;2.93;87.57
67799;SHT30;54596;43.216;27.904;2024-01-30T07:05:01;2.94;87.41
67799;SHT30;54596;43.216;27.904;2024-01-30T07:07:28;2.94;86.97
67799;SHT30;54596;43.216;27.904;2024-01-30T07:09:54;2.93;86.70
67799;SHT30;54596;43.216;27.904;2024-01-30T07:12:22;2.90;86.85
67799;SHT30;54596;43.216;27.904;2024-01-30T07:14:49;2.93;87.35
67799;SHT30;54596;43.216;27.904;2024-01-30T07:17:15;2.90;87.07
67799;SHT30;54596;43.216;27.904;2024-01-30T07:19:41;2.87;86.65
67799;SHT30;54596;43.216;27.904;2024-01-30T07:22:07;2.87;86.48
67799;SHT30;54596;43.216;27.904;2024-01-30T07:24:33;2.87;86.46
67799;SHT30;54596;43.216;27.904;2024-01-30T07:26:59;2.87;86.26
67799;SHT30;54596;43.216;27.904;2024-01-30T07:29:25;2.91;86.28
67799;SHT30;54596;43.216;27.904;2024-01-30T07:31:51;2.96;86.11
67799;SHT30;54596;43.216;27.904;2024-01-30T07:34:17;3.00;86.00
67799;SHT30;54596;43.216;27.904;2024-01-30T07:36:42;3.04;85.70
67799;SHT30;54596;43.216;27.904;2024-01-30T07:39:08;3.08;85.50
67799;SHT30;54596;43.216;27.904;2024-01-30T07:41:35;3.12;85.49
67799;SHT30;54596;43.216;27.904;2024-01-30T07:44:00;3.14;85.59
67799;SHT30;54596;43.216;27.904;2024-01-30T07:46:26;3.21;85.30
67799;SHT30;54596;43.216;27.904;2024-01-30T07:48:51;3.22;85.11
67799;SHT30;54596;43.216;27.904;2024-01-30T07:51:17;3.19;84.90
67799;SHT30;54596;43.216;27.904;2024-01-30T07:53:43;3.26;85.45
67799;SHT30;54596;43.216;27.904;2024-01-30T07:56:08;3.33;85.37
67799;SHT30;54596;43.216;27.904;2024-01-30T07:58:35;3.38;84.66
67799;SHT30;54596;43.216;27.904;2024-01-30T08:01:01;3.35;84.38
67799;SHT30;54596;43.216;27.904;2024-01-30T08:03:26;3.36;84.30
67799;SHT30;54596;43.216;27.904;2024-01-30T08:05:52;3.42;84.19
67799;SHT30;54596;43.216;27.904;2024-01-30T08:08:17;3.55;84.08
67799;SHT30;54596;43.216;27.904;2024-01-30T08:10:43;3.64;83.83
67799;SHT30;54596;43.216;27.904;2024-01-30T08:13:09;3.64;83.54
67799;SHT30;54596;43.216;27.904;2024-01-30T08:15:34;3.66;83.47
67799;SHT30;54596;43.216;27.904;2024-01-30T08:18:00;3.76;83.32
67799;SHT30;54596;43.216;27.904;2024-01-30T08:20:26;3.70;83.02
67799;SHT30;54596;43.216;27.904;2024-01-30T08:22:52;3.74;83.09
67799;SHT30;54596;43.216;27.904;2024-01-30T08:25:17;3.69;83.05
67799;SHT30;54596;43.216;27.904;2024-01-30T08:27:44;3.73;83.08
67799;SHT30;54596;43.216;27.904;2024-01-30T08:30:10;3.66;82.73
67799;SHT30;54596;43.216;27.904;2024-01-30T08:32:36;3.71;83.09
67799;SHT30;54596;43.216;27.904;2024-01-30T08:35:01;3.78;82.69
67799;SHT30;54596;43.216;27.904;2024-01-30T08:37:30;3.74;82.63
67799;SHT30;54596;43.216;27.904;2024-01-30T08:39:56;3.77;82.65
67799;SHT30;54596;43.216;27.904;2024-01-30T08:42:22;3.71;82.56
67799;SHT30;54596;43.216;27.904;2024-01-30T08:44:51;3.67;82.75
67799;SHT30;54596;43.216;27.904;2024-01-30T08:47:18;3.69;82.82
67799;SHT30;54596;43.216;27.904;2024-01-30T08:49:44;3.63;82.85
67799;SHT30;54596;43.216;27.904;2024-01-30T08:52:10;3.67;83.11
67799;SHT30;54596;43.216;27.904;2024-01-30T08:54:36;3.76;82.98
67799;SHT30;54596;43.216;27.904;2024-01-30T08:57:02;3.74;82.61
67799;SHT30;54596;43.216;27.904;2024-01-30T08:59:27;3.81;82.45
67799;SHT30;54596;43.216;27.904;2024-01-30T09:01:53;3.88;82.16
67799;SHT30;54596;43.216;27.904;2024-01-30T09:04:21;3.98;82.06
67799;SHT30;54596;43.216;27.904;2024-01-30T09:06:47;4.04;81.94
67799;SHT30;54596;43.216;27.904;2024-01-30T09:09:13;4.09;81.89
67799;SHT30;54596;43.216;27.904;2024-01-30T09:11:40;4.13;81.76
67799;SHT30;54596;43.216;27.904;2024-01-30T09:14:05;4.21;81.79
67799;SHT30;54596;43.216;27.904;2024-01-30T09:16:31;4.29;81.51
67799;SHT30;54596;43.216;27.904;2024-01-30T09:18:56;4.36;81.31
67799;SHT30;54596;43.216;27.904;2024-01-30T09:21:22;4.46;81.15
67799;SHT30;54596;43.216;27.904;2024-01-30T09:23:48;4.50;80.77
67799;SHT30;54596;43.216;27.904;2024-01-30T09:26:14;4.53;80.35
67799;SHT30;54596;43.216;27.904;2024-01-30T09:28:39;4.47;80.32
67799;SHT30;54596;43.216;27.904;2024-01-30T09:31:10;4.52;80.38
67799;SHT30;54596;43.216;27.904;2024-01-30T09:33:35;4.60;80.39
67799;SHT30;54596;43.216;27.904;2024-01-30T09:36:01;4.61;80.22
67799;SHT30;54596;43.216;27.904;2024-01-30T09:38:27;4.66;79.97
67799;SHT30;54596;43.216;27.904;2024-01-30T09:40:54;4.67;80.09
67799;SHT30;54596;43.216;27.904;2024-01-30T09:43:23;4.68;80.06
67799;SHT30;54596;43.216;27.904;2024-01-30T09:45:50;4.74;79.89
67799;SHT30;54596;43.216;27.904;2024-01-30T09:48:16;4.75;79.80
67799;SHT30;54596;43.216;27.904;2024-01-30T09:50:42;4.74;79.67
67799;SHT30;54596;43.216;27.904;2024-01-30T09:53:08;4.81;79.94
67799;SHT30;54596;43.216;27.904;2024-01-30T09:55:36;4.84;80.04
67799;SHT30;54596;43.216;27.904;2024-01-30T09:58:02;4.94;79.86
67799;SHT30;54596;43.216;27.904;2024-01-30T10:00:27;4.96;79.65
67799;SHT30;54596;43.216;27.904;2024-01-30T10:02:53;4.91;79.51
67799;SHT30;54596;43.216;27.904;2024-01-30T10:05:19;4.84;79.97
67799;SHT30;54596;43.216;27.904;2024-01-30T10:07:56;4.87;79.28
67799;SHT30;54596;43.216;27.904;2024-01-30T10:10:22;4.83;79.66
67799;SHT30;54596;43.216;27.904;2024-01-30T10:12:49;4.77;80.08
67799;SHT30;54596;43.216;27.904;2024-01-30T10:15:15;4.84;79.96
67799;SHT30;54596;43.216;27.904;2024-01-30T10:17:40;4.87;79.43
67799;SHT30;54596;43.216;27.904;2024-01-30T10:20:06;4.78;79.02
67799;SHT30;54596;43.216;27.904;2024-01-30T10:22:33;4.83;79.16
67799;SHT30;54596;43.216;27.904;2024-01-30T10:25:00;4.88;79.76
67799;SHT30;54596;43.216;27.904;2024-01-30T10:27:26;4.88;79.35
67799;SHT30;54596;43.216;27.904;2024-01-30T10:29:52;4.85;79.08
67799;SHT30;54596;43.216;27.904;2024-01-30T10:32:19;4.85;78.99
67799;SHT30;54596;43.216;27.904;2024-01-30T10:34:46;4.87;79.18
67799;SHT30;54596;43.216;27.904;2024-01-30T10:37:12;4.85;79.23
67799;SHT30;54596;43.216;27.904;2024-01-30T10:39:41;4.85;79.26
67799;SHT30;54596;43.216;27.904;2024-01-30T10:42:12;4.92;79.71
67799;SHT30;54596;43.216;27.904;2024-01-30T10:45:00;4.96;79.36
67799;SHT30;54596;43.216;27.904;2024-01-30T10:47:29;5.02;79.26
67799;SHT30;54596;43.216;27.904;2024-01-30T10:49:56;5.07;79.16
67799;SHT30;54596;43.216;27.904;2024-01-30T10:52:23;5.07;78.80
67799;SHT30;54596;43.216;27.904;2024-01-30T10:54:51;5.09;78.75
67799;SHT30;54596;43.216;27.904;2024-01-30T10:57:18;5.15;78.90
67799;SHT30;54596;43.216;27.904;2024-01-30T10:59:44;5.15;78.75
67799;SHT30;54596;43.216;27.904;2024-01-30T11:02:10;5.15;78.66
67799;SHT30;54596;43.216;27.904;2024-01-30T11:04:41;5.18;78.36
67799;SHT30;54596;43.216;27.904;2024-01-30T11:07:24;5.25;78.11
67799;SHT30;54596;43.216;27.904;2024-01-30T11:09:51;5.20;78.05
67799;SHT30;54596;43.216;27.904;2024-01-30T11:12:22;5.22;77.97
67799;SHT30;54596;43.216;27.904;2024-01-30T11:14:48;5.23;77.90
67799;SHT30;54596;43.216;27.904;2024-01-30T11:17:14;5.30;77.79
67799;SHT30;54596;43.216;27.904;2024-01-30T11:19:41;5.35;77.71
67799;SHT30;54596;43.216;27.904;2024-01-30T11:22:07;5.30;77.46
67799;SHT30;54596;43.216;27.904;2024-01-30T11:24:42;5.26;77.16
67799;SHT30;54596;43.216;27.904;2024-01-30T11:27:09;5.32;77.47
67799;SHT30;54596;43.216;27.904;2024-01-30T11:29:36;5.32;77.15
67799;SHT30;54596;43.216;27.904;2024-01-30T11:32:02;5.42;76.87
67799;SHT30;54596;43.216;27.904;2024-01-30T11:34:28;5.48;76.71
67799;SHT30;54596;43.216;27.904;2024-01-30T11:36:59;5.43;76.65
67799;SHT30;54596;43.216;27.904;2024-01-30T11:39:26;5.42;76.68
67799;SHT30;54596;43.216;27.904;2024-01-30T11:41:52;5.43;76.34
67799;SHT30;54596;43.216;27.904;2024-01-30T11:44:22;5.39;75.65
67799;SHT30;54596;43.216;27.904;2024-01-30T11:46:48;5.39;75.60
67799;SHT30;54596;43.216;27.904;2024-01-30T11:49:15;5.42;75.71
67799;SHT30;54596;43.216;27.904;2024-01-30T11:51:42;5.46;75.62
67799;SHT30;54596;43.216;27.904;2024-01-30T11:54:08;5.50;75.73
67799;SHT30;54596;43.216;27.904;2024-01-30T11:56:33;5.57;75.45
67799;SHT30;54596;43.216;27.904;2024-01-30T11:58:59;5.60;75.01
67799;SHT30;54596;43.216;27.904;2024-01-30T12:01:28;5.48;74.50
67799;SHT30;54596;43.216;27.904;2024-01-30T12:03:53;5.51;74.22
67799;SHT30;54596;43.216;27.904;2024-01-30T12:06:19;5.43;74.49
67799;SHT30;54596;43.216;27.904;2024-01-30T12:09:01;5.44;74.71
67799;SHT30;54596;43.216;27.904;2024-01-30T12:11:29;5.46;75.28
67799;SHT30;54596;43.216;27.904;2024-01-30T12:13:56;5.47;75.15
67799;SHT30;54596;43.216;27.904;2024-01-30T12:16:22;5.50;74.65
67799;SHT30;54596;43.216;27.904;2024-01-30T12:18:48;5.47;74.90
67799;SHT30;54596;43.216;27.904;2024-01-30T12:21:16;5.50;74.58
67799;SHT30;54596;43.216;27.904;2024-01-30T12:23:43;5.53;74.76
67799;SHT30;54596;43.216;27.904;2024-01-30T12:26:09;5.61;75.02
67799;SHT30;54596;43.216;27.904;2024-01-30T12:28:35;5.58;74.98
67799;SHT30;54596;43.216;27.904;2024-01-30T12:31:02;5.60;74.99
67799;SHT30;54596;43.216;27.904;2024-01-30T12:33:28;5.57;74.80
67799;SHT30;54596;43.216;27.904;2024-01-30T12:35:54;5.54;74.64
67799;SHT30;54596;43.216;27.904;2024-01-30T12:38:20;5.50;74.73
67799;SHT30;54596;43.216;27.904;2024-01-30T12:40:45;5.37;74.29
67799;SHT30;54596;43.216;27.904;2024-01-30T12:43:13;5.35;74.69
67799;SHT30;54596;43.216;27.904;2024-01-30T12:45:39;5.30;74.95
67799;SHT30;54596;43.216;27.904;2024-01-30T12:48:06;5.33;75.21
67799;SHT30;54596;43.216;27.904;2024-01-30T12:50:32;5.30;75.29
67799;SHT30;54596;43.216;27.904;2024-01-30T12:52:57;5.29;75.58
67799;SHT30;54596;43.216;27.904;2024-01-30T12:55:23;5.30;75.40
67799;SHT30;54596;43.216;27.904;2024-01-30T12:57:49;5.32;74.90
67799;SHT30;54596;43.216;27.904;2024-01-30T13:00:16;5.35;74.27
67799;SHT30;54596;43.216;27.904;2024-01-30T13:02:42;5.33;74.18
67799;SHT30;54596;43.216;27.904;2024-01-30T13:05:10;5.40;73.71
67799;SHT30;54596;43.216;27.904;2024-01-30T13:07:35;5.39;72.38
67799;SHT30;54596;43.216;27.904;2024-01-30T13:10:02;5.40;72.41
67799;SHT30;54596;43.216;27.904;2024-01-30T13:12:30;5.35;71.01
67799;SHT30;54596;43.216;27.904;2024-01-30T13:14:57;5.36;70.46
67799;SHT30;54596;43.216;27.904;2024-01-30T13:17:23;5.37;70.01
67799;SHT30;54596;43.216;27.904;2024-01-30T13:19:48;5.42;69.49
67799;SHT30;54596;43.216;27.904;2024-01-30T13:22:15;5.43;70.00
67799;SHT30;54596;43.216;27.904;2024-01-30T13:24:41;5.47;70.46
67799;SHT30;54596;43.216;27.904;2024-01-30T13:27:07;5.47;70.34
67799;SHT30;54596;43.216;27.904;2024-01-30T13:29:33;5.48;69.95
67799;SHT30;54596;43.216;27.904;2024-01-30T13:31:58;5.51;69.56
67799;SHT30;54596;43.216;27.904;2024-01-30T13:34:24;5.51;69.42
67799;SHT30;54596;43.216;27.904;2024-01-30T13:36:50;5.50;69.57
67799;SHT30;54596;43.216;27.904;2024-01-30T13:39:16;5.50;69.78
67799;SHT30;54596;43.216;27.904;2024-01-30T13:41:42;5.48;70.39
67799;SHT30;54596;43.216;27.904;2024-01-30T13:44:07;5.48;71.38
67799;SHT30;54596;43.216;27.904;2024-01-30T13:46:34;5.48;71.73
67799;SHT30;54596;43.216;27.904;2024-01-30T13:48:59;5.50;71.90
67799;SHT30;54596;43.216;27.904;2024-01-30T13:51:25;5.48;71.24
67799;SHT30;54596;43.216;27.904;2024-01-30T13:53:51;5.42;70.75
67799;SHT30;54596;43.216;27.904;2024-01-30T13:56:35;5.36;70.11
67799;SHT30;54596;43.216;27.904;2024-01-30T13:59:01;5.32;69.11
67799;SHT30;54596;43.216;27.904;2024-01-30T14:01:30;5.33;69.16
67799;SHT30;54596;43.216;27.904;2024-01-30T14:03:55;5.29;69.01
67799;SHT30;54596;43.216;27.904;2024-01-30T14:06:21;5.29;69.36
67799;SHT30;54596;43.216;27.904;2024-01-30T14:08:47;5.30;69.22
67799;SHT30;54596;43.216;27.904;2024-01-30T14:11:12;5.32;68.86
67799;SHT30;54596;43.216;27.904;2024-01-30T14:13:38;5.27;69.13
67799;SHT30;54596;43.216;27.904;2024-01-30T14:16:03;5.26;69.70
67799;SHT30;54596;43.216;27.904;2024-01-30T14:18:29;5.27;70.47
67799;SHT30;54596;43.216;27.904;2024-01-30T14:20:55;5.26;71.45
67799;SHT30;54596;43.216;27.904;2024-01-30T14:23:21;5.23;71.95
67799;SHT30;54596;43.216;27.904;2024-01-30T14:25:47;5.20;72.20
67799;SHT30;54596;43.216;27.904;2024-01-30T14:28:12;5.15;72.44
67799;SHT30;54596;43.216;27.904;2024-01-30T14:30:38;5.20;72.37
67799;SHT30;54596;43.216;27.904;2024-01-30T14:33:03;5.13;72.42
67799;SHT30;54596;43.216;27.904;2024-01-30T14:35:29;5.12;72.53
67799;SHT30;54596;43.216;27.904;2024-01-30T14:37:55;5.13;72.56
67799;SHT30;54596;43.216;27.904;2024-01-30T14:40:20;5.09;72.54
67799;SHT30;54596;43.216;27.904;2024-01-30T14:42:46;5.11;72.81
67799;SHT30;54596;43.216;27.904;2024-01-30T14:45:12;5.04;73.16
67799;SHT30;54596;43.216;27.904;2024-01-30T14:47:37;5.02;73.52
67799;SHT30;54596;43.216;27.904;2024-01-30T14:50:04;4.98;73.92
67799;SHT30;54596;43.216;27.904;2024-01-30T14:52:30;5.02;73.93
67799;SHT30;54596;43.216;27.904;2024-01-30T14:54:57;4.96;73.49
67799;SHT30;54596;43.216;27.904;2024-01-30T14:57:25;4.91;73.57
67799;SHT30;54596;43.216;27.904;2024-01-30T14:59:51;4.95;73.62
67799;SHT30;54596;43.216;27.904;2024-01-30T15:02:17;4.84;73.72
67799;SHT30;54596;43.216;27.904;2024-01-30T15:04:42;4.85;73.84
67799;SHT30;54596;43.216;27.904;2024-01-30T15:07:08;4.84;73.98
67799;SHT30;54596;43.216;27.904;2024-01-30T15:09:34;4.84;74.11
67799;SHT30;54596;43.216;27.904;2024-01-30T15:12:00;4.80;74.34
67799;SHT30;54596;43.216;27.904;2024-01-30T15:14:25;4.81;74.63
67799;SHT30;54596;43.216;27.904;2024-01-30T15:16:51;4.78;75.08
67799;SHT30;54596;43.216;27.904;2024-01-30T15:19:17;4.70;75.35
67799;SHT30;54596;43.216;27.904;2024-01-30T15:21:42;4.71;75.58
67799;SHT30;54596;43.216;27.904;2024-01-30T15:24:08;4.66;75.82